sensor_id;sensor_type;location;lat;lon;timestamp;P1;durP1;ratioP1;P2;durP2;ratioP2
6941;SDS011;3510;43.200;27.920;2022-10-16T02:46:50;3.73;;;3.33;;
6941;SDS011;3510;43.200;27.920;2022-10-16T02:49:17;2.93;;;2.63;;
6941;SDS011;3510;43.200;27.920;2022-10-16T02:51:44;3.43;;;3.13;;
6941;SDS011;3510;43.200;27.920;2022-10-16T02:54:13;2.70;;;2.50;;
6941;SDS011;3510;43.200;27.920;2022-10-16T02:56:40;3.57;;;3.27;;
6941;SDS011;3510;43.200;27.920;2022-10-16T02:59:07;2.10;;;2.00;;
6941;SDS011;3510;43.200;27.920;2022-10-16T03:01:34;2.43;;;2.33;;
6941;SDS011;3510;43.200;27.920;2022-10-16T03:04:00;1.77;;;1.67;;
6941;SDS011;3510;43.200;27.920;2022-10-16T03:06:27;3.10;;;2.50;;
6941;SDS011;3510;43.200;27.920;2022-10-16T03:08:54;4.97;;;2.07;;
6941;SDS011;3510;43.200;27.920;2022-10-16T03:11:23;3.90;;;3.30;;
6941;SDS011;3510;43.200;27.920;2022-10-16T03:13:50;2.80;;;2.60;;
6941;SDS011;3510;43.200;27.920;2022-10-16T03:16:17;4.40;;;2.70;;
6941;SDS011;3510;43.200;27.920;2022-10-16T03:18:47;3.07;;;2.77;;
6941;SDS011;3510;43.200;27.920;2022-10-16T03:21:14;7.20;;;2.93;;
6941;SDS011;3510;43.200;27.920;2022-10-16T03:23:41;3.30;;;2.73;;
6941;SDS011;3510;43.200;27.920;2022-10-16T03:26:08;4.57;;;2.70;;
6941;SDS011;3510;43.200;27.920;2022-10-16T03:28:37;3.72;;;2.80;;
6941;SDS011;3510;43.200;27.920;2022-10-16T03:31:04;3.03;;;2.67;;
6941;SDS011;3510;43.200;27.920;2022-10-16T03:33:31;3.17;;;2.88;;
6941;SDS011;3510;43.200;27.920;2022-10-16T03:35:58;2.95;;;2.75;;
6941;SDS011;3510;43.200;27.920;2022-10-16T03:38:25;3.22;;;3.00;;
6941;SDS011;3510;43.200;27.920;2022-10-16T03:40:53;2.80;;;2.55;;
6941;SDS011;3510;43.200;27.920;2022-10-16T03:43:34;2.75;;;2.55;;
6941;SDS011;3510;43.200;27.920;2022-10-16T03:46:02;4.22;;;2.88;;
6941;SDS011;3510;43.200;27.920;2022-10-16T03:48:29;4.50;;;2.90;;
6941;SDS011;3510;43.200;27.920;2022-10-16T03:50:57;3.05;;;2.85;;
6941;SDS011;3510;43.200;27.920;2022-10-16T03:53:24;3.17;;;2.55;;
6941;SDS011;3510;43.200;27.920;2022-10-16T03:55:51;3.90;;;3.10;;
6941;SDS011;3510;43.200;27.920;2022-10-16T03:58:18;3.28;;;2.80;;
6941;SDS011;3510;43.200;27.920;2022-10-16T04:00:45;3.33;;;2.83;;
6941;SDS011;3510;43.200;27.920;2022-10-16T04:03:15;3.10;;;2.70;;
6941;SDS011;3510;43.200;27.920;2022-10-16T04:05:43;3.25;;;2.72;;
6941;SDS011;3510;43.200;27.920;2022-10-16T04:08:10;2.83;;;2.63;;
6941;SDS011;3510;43.200;27.920;2022-10-16T04:10:37;5.32;;;2.72;;
6941;SDS011;3510;43.200;27.920;2022-10-16T04:13:04;5.50;;;2.90;;
6941;SDS011;3510;43.200;27.920;2022-10-16T04:15:31;3.38;;;3.08;;
6941;SDS011;3510;43.200;27.920;2022-10-16T04:17:58;3.90;;;2.80;;
6941;SDS011;3510;43.200;27.920;2022-10-16T04:20:26;4.82;;;3.33;;
6941;SDS011;3510;43.200;27.920;2022-10-16T04:22:53;5.63;;;3.00;;
6941;SDS011;3510;43.200;27.920;2022-10-16T04:25:20;4.30;;;3.05;;
6941;SDS011;3510;43.200;27.920;2022-10-16T04:27:47;3.78;;;3.00;;
6941;SDS011;3510;43.200;27.920;2022-10-16T04:30:14;5.22;;;3.40;;
6941;SDS011;3510;43.200;27.920;2022-10-16T04:32:41;4.85;;;3.35;;
6941;SDS011;3510;43.200;27.920;2022-10-16T04:35:08;5.05;;;3.03;;
6941;SDS011;3510;43.200;27.920;2022-10-16T04:37:37;3.80;;;3.38;;
6941;SDS011;3510;43.200;27.920;2022-10-16T04:40:04;5.40;;;3.50;;
6941;SDS011;3510;43.200;27.920;2022-10-16T04:42:31;5.93;;;4.00;;
6941;SDS011;3510;43.200;27.920;2022-10-16T04:44:58;5.20;;;3.95;;
6941;SDS011;3510;43.200;27.920;2022-10-16T04:47:25;4.10;;;3.80;;
6941;SDS011;3510;43.200;27.920;2022-10-16T04:49:52;4.00;;;3.70;;
6941;SDS011;3510;43.200;27.920;2022-10-16T04:52:19;5.93;;;4.07;;
6941;SDS011;3510;43.200;27.920;2022-10-16T04:54:50;4.55;;;3.72;;
6941;SDS011;3510;43.200;27.920;2022-10-16T04:57:19;6.55;;;4.00;;
6941;SDS011;3510;43.200;27.920;2022-10-16T04:59:45;6.60;;;4.20;;
6941;SDS011;3510;43.200;27.920;2022-10-16T05:02:12;4.45;;;3.35;;
6941;SDS011;3510;43.200;27.920;2022-10-16T05:04:39;4.20;;;3.80;;
6941;SDS011;3510;43.200;27.920;2022-10-16T05:07:06;6.70;;;3.35;;
6941;SDS011;3510;43.200;27.920;2022-10-16T05:09:33;3.60;;;3.13;;
6941;SDS011;3510;43.200;27.920;2022-10-16T05:12:02;6.38;;;3.13;;
6941;SDS011;3510;43.200;27.920;2022-10-16T05:14:29;3.85;;;3.55;;
6941;SDS011;3510;43.200;27.920;2022-10-16T05:16:56;3.70;;;3.40;;
6941;SDS011;3510;43.200;27.920;2022-10-16T05:19:23;4.05;;;3.22;;
6941;SDS011;3510;43.200;27.920;2022-10-16T05:21:50;4.90;;;3.33;;
6941;SDS011;3510;43.200;27.920;2022-10-16T05:24:17;4.68;;;3.30;;
6941;SDS011;3510;43.200;27.920;2022-10-16T05:26:44;4.47;;;3.92;;
6941;SDS011;3510;43.200;27.920;2022-10-16T05:29:13;4.10;;;3.70;;
6941;SDS011;3510;43.200;27.920;2022-10-16T05:31:40;4.60;;;3.83;;
6941;SDS011;3510;43.200;27.920;2022-10-16T05:34:07;6.25;;;4.78;;
6941;SDS011;3510;43.200;27.920;2022-10-16T05:36:34;5.75;;;4.47;;
6941;SDS011;3510;43.200;27.920;2022-10-16T05:39:01;4.43;;;4.10;;
6941;SDS011;3510;43.200;27.920;2022-10-16T05:41:28;5.03;;;4.50;;
6941;SDS011;3510;43.200;27.920;2022-10-16T05:43:55;5.47;;;4.47;;
6941;SDS011;3510;43.200;27.920;2022-10-16T05:46:23;4.65;;;4.32;;
6941;SDS011;3510;43.200;27.920;2022-10-16T05:48:51;5.72;;;5.18;;
6941;SDS011;3510;43.200;27.920;2022-10-16T05:51:19;6.35;;;4.55;;
6941;SDS011;3510;43.200;27.920;2022-10-16T05:53:46;5.25;;;4.70;;
6941;SDS011;3510;43.200;27.920;2022-10-16T05:56:13;5.15;;;4.70;;
6941;SDS011;3510;43.200;27.920;2022-10-16T05:58:40;7.28;;;5.35;;
6941;SDS011;3510;43.200;27.920;2022-10-16T06:01:09;5.65;;;5.25;;
6941;SDS011;3510;43.200;27.920;2022-10-16T06:03:39;5.63;;;5.20;;
6941;SDS011;3510;43.200;27.920;2022-10-16T06:06:09;5.07;;;4.68;;
6941;SDS011;3510;43.200;27.920;2022-10-16T06:08:37;5.15;;;4.65;;
6941;SDS011;3510;43.200;27.920;2022-10-16T06:11:05;6.67;;;5.10;;
6941;SDS011;3510;43.200;27.920;2022-10-16T06:13:34;5.00;;;4.70;;
6941;SDS011;3510;43.200;27.920;2022-10-16T06:16:01;5.20;;;4.70;;
6941;SDS011;3510;43.200;27.920;2022-10-16T06:18:29;8.23;;;4.97;;
6941;SDS011;3510;43.200;27.920;2022-10-16T06:20:58;4.28;;;4.05;;
6941;SDS011;3510;43.200;27.920;2022-10-16T06:23:25;5.05;;;4.05;;
6941;SDS011;3510;43.200;27.920;2022-10-16T06:25:54;4.28;;;3.65;;
6941;SDS011;3510;43.200;27.920;2022-10-16T06:28:30;3.70;;;3.40;;
6941;SDS011;3510;43.200;27.920;2022-10-16T06:30:58;12.67;;;3.27;;
6941;SDS011;3510;43.200;27.920;2022-10-16T06:40:47;3.67;;;3.03;;
6941;SDS011;3510;43.200;27.920;2022-10-16T06:43:14;3.93;;;3.63;;
6941;SDS011;3510;43.200;27.920;2022-10-16T06:45:41;3.10;;;2.60;;
6941;SDS011;3510;43.200;27.920;2022-10-16T06:48:08;3.10;;;2.90;;
6941;SDS011;3510;43.200;27.920;2022-10-16T06:50:35;6.60;;;2.90;;
6941;SDS011;3510;43.200;27.920;2022-10-16T06:55:30;3.33;;;2.40;;
6941;SDS011;3510;43.200;27.920;2022-10-16T06:57:57;3.23;;;2.57;;
6941;SDS011;3510;43.200;27.920;2022-10-16T07:00:23;3.77;;;2.23;;
6941;SDS011;3510;43.200;27.920;2022-10-16T07:02:52;3.13;;;2.37;;
6941;SDS011;3510;43.200;27.920;2022-10-16T07:05:19;2.93;;;2.03;;
6941;SDS011;3510;43.200;27.920;2022-10-16T07:07:46;3.17;;;2.17;;
6941;SDS011;3510;43.200;27.920;2022-10-16T07:10:13;2.50;;;2.20;;
6941;SDS011;3510;43.200;27.920;2022-10-16T07:12:41;5.37;;;2.27;;
6941;SDS011;3510;43.200;27.920;2022-10-16T07:15:10;3.80;;;2.63;;
6941;SDS011;3510;43.200;27.920;2022-10-16T07:17:37;2.63;;;2.23;;
6941;SDS011;3510;43.200;27.920;2022-10-16T07:20:05;2.50;;;2.25;;
6941;SDS011;3510;43.200;27.920;2022-10-16T07:22:33;3.13;;;2.20;;
6941;SDS011;3510;43.200;27.920;2022-10-16T07:25:00;2.20;;;1.95;;
6941;SDS011;3510;43.200;27.920;2022-10-16T07:27:27;2.80;;;1.73;;
6941;SDS011;3510;43.200;27.920;2022-10-16T07:29:56;1.95;;;1.80;;
6941;SDS011;3510;43.200;27.920;2022-10-16T07:32:23;5.20;;;2.20;;
6941;SDS011;3510;43.200;27.920;2022-10-16T07:34:50;4.60;;;2.00;;
6941;SDS011;3510;43.200;27.920;2022-10-16T07:37:17;1.97;;;1.77;;
6941;SDS011;3510;43.200;27.920;2022-10-16T07:39:44;2.90;;;2.27;;
6941;SDS011;3510;43.200;27.920;2022-10-16T07:42:11;6.75;;;2.00;;
6941;SDS011;3510;43.200;27.920;2022-10-16T07:44:38;1.90;;;1.70;;
6941;SDS011;3510;43.200;27.920;2022-10-16T07:47:07;3.17;;;1.67;;
6941;SDS011;3510;43.200;27.920;2022-10-16T07:49:34;3.78;;;1.80;;
6941;SDS011;3510;43.200;27.920;2022-10-16T07:52:01;5.47;;;1.88;;
6941;SDS011;3510;43.200;27.920;2022-10-16T07:54:28;2.78;;;2.05;;
6941;SDS011;3510;43.200;27.920;2022-10-16T07:56:55;1.95;;;1.83;;
6941;SDS011;3510;43.200;27.920;2022-10-16T07:59:22;3.25;;;1.90;;
6941;SDS011;3510;43.200;27.920;2022-10-16T08:01:49;10.88;;;2.38;;
6941;SDS011;3510;43.200;27.920;2022-10-16T08:04:17;4.70;;;1.65;;
6941;SDS011;3510;43.200;27.920;2022-10-16T08:06:44;3.35;;;1.63;;
6941;SDS011;3510;43.200;27.920;2022-10-16T08:09:11;3.40;;;1.75;;
6941;SDS011;3510;43.200;27.920;2022-10-16T08:11:38;2.75;;;1.80;;
6941;SDS011;3510;43.200;27.920;2022-10-16T08:14:05;2.45;;;1.85;;
6941;SDS011;3510;43.200;27.920;2022-10-16T08:16:32;3.97;;;1.85;;
6941;SDS011;3510;43.200;27.920;2022-10-16T08:18:59;4.35;;;1.50;;
6941;SDS011;3510;43.200;27.920;2022-10-16T08:21:27;2.40;;;2.17;;
6941;SDS011;3510;43.200;27.920;2022-10-16T08:23:54;3.22;;;1.65;;
6941;SDS011;3510;43.200;27.920;2022-10-16T08:26:21;4.82;;;1.60;;
6941;SDS011;3510;43.200;27.920;2022-10-16T08:28:49;1.98;;;1.33;;
6941;SDS011;3510;43.200;27.920;2022-10-16T08:31:16;3.65;;;1.90;;
6941;SDS011;3510;43.200;27.920;2022-10-16T08:33:44;2.10;;;1.90;;
6941;SDS011;3510;43.200;27.920;2022-10-16T08:36:12;3.10;;;1.60;;
6941;SDS011;3510;43.200;27.920;2022-10-16T08:38:41;2.10;;;1.80;;
6941;SDS011;3510;43.200;27.920;2022-10-16T08:41:13;1.85;;;1.60;;
6941;SDS011;3510;43.200;27.920;2022-10-16T08:43:54;2.53;;;1.75;;
6941;SDS011;3510;43.200;27.920;2022-10-16T08:46:47;2.47;;;1.67;;
6941;SDS011;3510;43.200;27.920;2022-10-16T08:49:20;2.55;;;1.52;;
6941;SDS011;3510;43.200;27.920;2022-10-16T08:51:49;2.90;;;1.70;;
6941;SDS011;3510;43.200;27.920;2022-10-16T08:54:23;1.95;;;1.83;;
6941;SDS011;3510;43.200;27.920;2022-10-16T08:56:55;2.00;;;1.60;;
6941;SDS011;3510;43.200;27.920;2022-10-16T08:59:23;3.83;;;1.63;;
6941;SDS011;3510;43.200;27.920;2022-10-16T09:01:50;4.15;;;2.10;;
6941;SDS011;3510;43.200;27.920;2022-10-16T09:07:21;1.77;;;1.65;;
6941;SDS011;3510;43.200;27.920;2022-10-16T09:10:08;1.83;;;1.40;;
6941;SDS011;3510;43.200;27.920;2022-10-16T09:12:45;1.90;;;1.55;;
6941;SDS011;3510;43.200;27.920;2022-10-16T09:15:21;2.20;;;1.92;;
6941;SDS011;3510;43.200;27.920;2022-10-16T09:17:56;5.18;;;2.10;;
6941;SDS011;3510;43.200;27.920;2022-10-16T09:20:32;7.00;;;1.60;;
6941;SDS011;3510;43.200;27.920;2022-10-16T09:25:54;1.70;;;1.60;;
6941;SDS011;3510;43.200;27.920;2022-10-16T09:28:23;4.00;;;1.80;;
6941;SDS011;3510;43.200;27.920;2022-10-16T09:30:50;3.00;;;2.03;;
6941;SDS011;3510;43.200;27.920;2022-10-16T09:33:18;5.85;;;2.20;;
6941;SDS011;3510;43.200;27.920;2022-10-16T09:35:48;6.47;;;2.75;;
6941;SDS011;3510;43.200;27.920;2022-10-16T09:38:24;2.47;;;2.22;;
6941;SDS011;3510;43.200;27.920;2022-10-16T09:40:56;7.80;;;2.95;;
6941;SDS011;3510;43.200;27.920;2022-10-16T09:43:25;2.60;;;1.65;;
6941;SDS011;3510;43.200;27.920;2022-10-16T09:45:59;1.73;;;1.63;;
6941;SDS011;3510;43.200;27.920;2022-10-16T09:48:28;2.97;;;2.00;;
6941;SDS011;3510;43.200;27.920;2022-10-16T09:51:00;3.67;;;1.65;;
6941;SDS011;3510;43.200;27.920;2022-10-16T09:53:38;2.50;;;1.70;;
6941;SDS011;3510;43.200;27.920;2022-10-16T09:56:09;8.05;;;2.38;;
6941;SDS011;3510;43.200;27.920;2022-10-16T09:58:41;4.93;;;2.45;;
6941;SDS011;3510;43.200;27.920;2022-10-16T10:01:11;9.05;;;3.20;;
6941;SDS011;3510;43.200;27.920;2022-10-16T10:03:40;6.28;;;2.90;;
6941;SDS011;3510;43.200;27.920;2022-10-16T10:06:16;6.32;;;2.83;;
6941;SDS011;3510;43.200;27.920;2022-10-16T10:08:57;5.38;;;2.63;;
6941;SDS011;3510;43.200;27.920;2022-10-16T10:14:27;3.97;;;2.05;;
6941;SDS011;3510;43.200;27.920;2022-10-16T10:17:02;4.50;;;1.90;;
6941;SDS011;3510;43.200;27.920;2022-10-16T10:19:38;2.40;;;2.20;;
6941;SDS011;3510;43.200;27.920;2022-10-16T10:22:16;6.72;;;2.22;;
6941;SDS011;3510;43.200;27.920;2022-10-16T10:24:53;2.25;;;1.95;;
6941;SDS011;3510;43.200;27.920;2022-10-16T10:27:23;3.42;;;1.80;;
6941;SDS011;3510;43.200;27.920;2022-10-16T10:29:58;2.05;;;1.60;;
6941;SDS011;3510;43.200;27.920;2022-10-16T10:32:32;1.83;;;1.73;;
6941;SDS011;3510;43.200;27.920;2022-10-16T10:35:07;3.92;;;2.60;;
6941;SDS011;3510;43.200;27.920;2022-10-16T10:37:46;2.22;;;2.13;;
6941;SDS011;3510;43.200;27.920;2022-10-16T10:40:23;8.48;;;2.47;;
6941;SDS011;3510;43.200;27.920;2022-10-16T10:43:04;5.05;;;2.10;;
6941;SDS011;3510;43.200;27.920;2022-10-16T10:45:38;5.10;;;2.50;;
6941;SDS011;3510;43.200;27.920;2022-10-16T10:48:14;3.45;;;3.00;;
6941;SDS011;3510;43.200;27.920;2022-10-16T10:50:51;4.18;;;2.45;;
6941;SDS011;3510;43.200;27.920;2022-10-16T10:53:25;2.78;;;2.25;;
6941;SDS011;3510;43.200;27.920;2022-10-16T10:56:05;6.00;;;2.72;;
6941;SDS011;3510;43.200;27.920;2022-10-16T11:01:46;9.05;;;2.63;;
6941;SDS011;3510;43.200;27.920;2022-10-16T11:04:23;5.38;;;2.63;;
6941;SDS011;3510;43.200;27.920;2022-10-16T11:07:00;4.85;;;2.42;;
6941;SDS011;3510;43.200;27.920;2022-10-16T11:09:31;3.70;;;2.42;;
6941;SDS011;3510;43.200;27.920;2022-10-16T11:12:05;5.95;;;2.28;;
6941;SDS011;3510;43.200;27.920;2022-10-16T11:14:40;5.93;;;2.67;;
6941;SDS011;3510;43.200;27.920;2022-10-16T11:17:13;4.97;;;2.50;;
6941;SDS011;3510;43.200;27.920;2022-10-16T11:19:46;2.95;;;2.50;;
6941;SDS011;3510;43.200;27.920;2022-10-16T11:22:19;7.95;;;2.65;;
6941;SDS011;3510;43.200;27.920;2022-10-16T11:24:49;5.78;;;3.13;;
6941;SDS011;3510;43.200;27.920;2022-10-16T11:27:22;5.97;;;2.58;;
6941;SDS011;3510;43.200;27.920;2022-10-16T11:29:57;4.88;;;2.70;;
6941;SDS011;3510;43.200;27.920;2022-10-16T11:32:27;2.40;;;2.20;;
6941;SDS011;3510;43.200;27.920;2022-10-16T11:35:00;9.98;;;2.55;;
6941;SDS011;3510;43.200;27.920;2022-10-16T11:37:36;2.22;;;2.03;;
6941;SDS011;3510;43.200;27.920;2022-10-16T11:40:14;3.05;;;2.45;;
6941;SDS011;3510;43.200;27.920;2022-10-16T11:42:48;6.22;;;2.50;;
6941;SDS011;3510;43.200;27.920;2022-10-16T11:45:26;4.20;;;2.47;;
6941;SDS011;3510;43.200;27.920;2022-10-16T11:48:00;3.33;;;2.30;;
6941;SDS011;3510;43.200;27.920;2022-10-16T11:50:31;2.80;;;2.10;;
6941;SDS011;3510;43.200;27.920;2022-10-16T11:53:04;13.57;;;2.40;;
6941;SDS011;3510;43.200;27.920;2022-10-16T11:55:40;3.17;;;2.35;;
6941;SDS011;3510;43.200;27.920;2022-10-16T11:58:09;6.57;;;2.25;;
6941;SDS011;3510;43.200;27.920;2022-10-16T12:00:47;4.80;;;2.90;;
6941;SDS011;3510;43.200;27.920;2022-10-16T12:03:24;3.08;;;2.03;;
6941;SDS011;3510;43.200;27.920;2022-10-16T12:05:58;3.50;;;2.05;;
6941;SDS011;3510;43.200;27.920;2022-10-16T12:08:36;3.13;;;2.33;;
6941;SDS011;3510;43.200;27.920;2022-10-16T12:11:07;2.80;;;2.50;;
6941;SDS011;3510;43.200;27.920;2022-10-16T12:13:35;5.93;;;3.13;;
6941;SDS011;3510;43.200;27.920;2022-10-16T12:16:06;4.80;;;2.47;;
6941;SDS011;3510;43.200;27.920;2022-10-16T12:18:46;7.50;;;2.25;;
6941;SDS011;3510;43.200;27.920;2022-10-16T12:21:14;4.53;;;2.40;;
6941;SDS011;3510;43.200;27.920;2022-10-16T12:23:47;8.25;;;2.22;;
6941;SDS011;3510;43.200;27.920;2022-10-16T12:26:23;2.33;;;1.95;;
6941;SDS011;3510;43.200;27.920;2022-10-16T12:28:51;5.05;;;2.35;;
6941;SDS011;3510;43.200;27.920;2022-10-16T12:31:20;4.25;;;2.45;;
6941;SDS011;3510;43.200;27.920;2022-10-16T12:33:55;8.00;;;2.53;;
6941;SDS011;3510;43.200;27.920;2022-10-16T12:36:28;2.72;;;2.10;;
6941;SDS011;3510;43.200;27.920;2022-10-16T12:38:57;11.85;;;2.58;;
6941;SDS011;3510;43.200;27.920;2022-10-16T12:41:33;4.30;;;1.95;;
6941;SDS011;3510;43.200;27.920;2022-10-16T12:44:20;5.97;;;2.40;;
6941;SDS011;3510;43.200;27.920;2022-10-16T12:46:50;7.20;;;2.97;;
6941;SDS011;3510;43.200;27.920;2022-10-16T12:49:21;8.70;;;1.92;;
6941;SDS011;3510;43.200;27.920;2022-10-16T12:52:31;7.13;;;2.47;;
6941;SDS011;3510;43.200;27.920;2022-10-16T12:55:02;5.55;;;2.08;;
6941;SDS011;3510;43.200;27.920;2022-10-16T12:57:34;7.65;;;2.67;;
6941;SDS011;3510;43.200;27.920;2022-10-16T13:00:14;5.38;;;2.15;;
6941;SDS011;3510;43.200;27.920;2022-10-16T13:02:53;6.95;;;2.90;;
6941;SDS011;3510;43.200;27.920;2022-10-16T13:05:35;5.85;;;1.73;;
6941;SDS011;3510;43.200;27.920;2022-10-16T13:08:17;3.35;;;2.25;;
6941;SDS011;3510;43.200;27.920;2022-10-16T13:11:01;2.92;;;2.25;;
6941;SDS011;3510;43.200;27.920;2022-10-16T13:13:37;5.50;;;2.03;;
6941;SDS011;3510;43.200;27.920;2022-10-16T13:16:18;3.63;;;1.88;;
6941;SDS011;3510;43.200;27.920;2022-10-16T13:18:56;6.07;;;2.50;;
6941;SDS011;3510;43.200;27.920;2022-10-16T13:21:37;3.10;;;1.95;;
6941;SDS011;3510;43.200;27.920;2022-10-16T13:24:15;6.05;;;2.35;;
6941;SDS011;3510;43.200;27.920;2022-10-16T13:26:53;3.78;;;2.72;;
6941;SDS011;3510;43.200;27.920;2022-10-16T13:29:25;1.80;;;1.70;;
6941;SDS011;3510;43.200;27.920;2022-10-16T13:31:57;3.35;;;3.08;;
6941;SDS011;3510;43.200;27.920;2022-10-16T13:34:26;2.20;;;2.10;;
6941;SDS011;3510;43.200;27.920;2022-10-16T13:36:53;4.63;;;2.30;;
6941;SDS011;3510;43.200;27.920;2022-10-16T13:39:22;3.28;;;2.00;;
6941;SDS011;3510;43.200;27.920;2022-10-16T13:42:03;2.30;;;2.10;;
6941;SDS011;3510;43.200;27.920;2022-10-16T13:44:35;3.08;;;2.10;;
6941;SDS011;3510;43.200;27.920;2022-10-16T13:47:10;5.40;;;2.42;;
6941;SDS011;3510;43.200;27.920;2022-10-16T13:49:45;6.35;;;2.38;;
6941;SDS011;3510;43.200;27.920;2022-10-16T13:52:17;9.73;;;2.97;;
6941;SDS011;3510;43.200;27.920;2022-10-16T13:54:45;5.78;;;2.53;;
6941;SDS011;3510;43.200;27.920;2022-10-16T13:57:13;2.60;;;2.40;;
6941;SDS011;3510;43.200;27.920;2022-10-16T13:59:41;3.35;;;2.17;;
6941;SDS011;3510;43.200;27.920;2022-10-16T14:02:10;5.20;;;2.42;;
6941;SDS011;3510;43.200;27.920;2022-10-16T14:04:46;8.00;;;2.92;;
6941;SDS011;3510;43.200;27.920;2022-10-16T14:07:23;4.18;;;2.45;;
6941;SDS011;3510;43.200;27.920;2022-10-16T14:09:52;2.30;;;1.95;;
6941;SDS011;3510;43.200;27.920;2022-10-16T14:12:20;7.55;;;2.42;;
6941;SDS011;3510;43.200;27.920;2022-10-16T14:14:49;4.20;;;1.98;;
6941;SDS011;3510;43.200;27.920;2022-10-16T14:17:20;7.93;;;2.30;;
6941;SDS011;3510;43.200;27.920;2022-10-16T14:19:52;11.15;;;2.00;;
6941;SDS011;3510;43.200;27.920;2022-10-16T14:22:29;3.15;;;2.28;;
6941;SDS011;3510;43.200;27.920;2022-10-16T14:24:58;2.47;;;2.20;;
6941;SDS011;3510;43.200;27.920;2022-10-16T14:27:28;7.85;;;2.17;;
6941;SDS011;3510;43.200;27.920;2022-10-16T14:30:09;3.05;;;2.15;;
6941;SDS011;3510;43.200;27.920;2022-10-16T14:32:40;4.47;;;2.22;;
6941;SDS011;3510;43.200;27.920;2022-10-16T14:35:23;3.25;;;2.13;;
6941;SDS011;3510;43.200;27.920;2022-10-16T14:37:52;3.85;;;2.20;;
6941;SDS011;3510;43.200;27.920;2022-10-16T14:40:20;4.78;;;2.10;;
6941;SDS011;3510;43.200;27.920;2022-10-16T14:42:50;2.28;;;2.03;;
6941;SDS011;3510;43.200;27.920;2022-10-16T14:45:18;7.03;;;2.92;;
6941;SDS011;3510;43.200;27.920;2022-10-16T14:47:50;6.72;;;2.67;;
6941;SDS011;3510;43.200;27.920;2022-10-16T14:50:20;5.65;;;2.30;;
6941;SDS011;3510;43.200;27.920;2022-10-16T14:52:49;8.25;;;1.88;;
6941;SDS011;3510;43.200;27.920;2022-10-16T14:55:16;3.00;;;1.92;;
6941;SDS011;3510;43.200;27.920;2022-10-16T14:57:43;3.72;;;2.25;;
6941;SDS011;3510;43.200;27.920;2022-10-16T15:00:14;2.90;;;1.92;;
6941;SDS011;3510;43.200;27.920;2022-10-16T15:02:43;17.60;;;4.15;;
6941;SDS011;3510;43.200;27.920;2022-10-16T15:05:12;4.93;;;2.78;;
6941;SDS011;3510;43.200;27.920;2022-10-16T15:07:42;2.67;;;1.92;;
6941;SDS011;3510;43.200;27.920;2022-10-16T15:10:11;10.45;;;3.10;;
6941;SDS011;3510;43.200;27.920;2022-10-16T15:12:38;8.27;;;2.65;;
6941;SDS011;3510;43.200;27.920;2022-10-16T15:15:25;12.30;;;3.95;;
6941;SDS011;3510;43.200;27.920;2022-10-16T15:17:58;6.68;;;3.50;;
6941;SDS011;3510;43.200;27.920;2022-10-16T15:20:27;7.13;;;2.80;;
6941;SDS011;3510;43.200;27.920;2022-10-16T15:22:59;11.27;;;4.27;;
6941;SDS011;3510;43.200;27.920;2022-10-16T15:25:32;9.60;;;3.00;;
6941;SDS011;3510;43.200;27.920;2022-10-16T15:28:04;2.85;;;2.33;;
6941;SDS011;3510;43.200;27.920;2022-10-16T15:30:33;4.80;;;2.60;;
6941;SDS011;3510;43.200;27.920;2022-10-16T15:33:00;4.87;;;2.50;;
6941;SDS011;3510;43.200;27.920;2022-10-16T15:35:29;6.72;;;2.03;;
6941;SDS011;3510;43.200;27.920;2022-10-16T15:37:56;5.00;;;2.50;;
6941;SDS011;3510;43.200;27.920;2022-10-16T15:40:24;2.67;;;2.00;;
6941;SDS011;3510;43.200;27.920;2022-10-16T15:42:52;2.40;;;2.20;;
6941;SDS011;3510;43.200;27.920;2022-10-16T15:45:19;5.33;;;2.30;;
6941;SDS011;3510;43.200;27.920;2022-10-16T15:47:47;2.22;;;2.13;;
6941;SDS011;3510;43.200;27.920;2022-10-16T15:50:14;6.90;;;2.30;;
6941;SDS011;3510;43.200;27.920;2022-10-16T15:52:42;6.15;;;2.40;;
6941;SDS011;3510;43.200;27.920;2022-10-16T15:55:10;3.78;;;2.55;;
6941;SDS011;3510;43.200;27.920;2022-10-16T15:57:39;3.23;;;2.93;;
6941;SDS011;3510;43.200;27.920;2022-10-16T16:00:10;3.20;;;2.90;;
6941;SDS011;3510;43.200;27.920;2022-10-16T16:02:39;5.70;;;2.95;;
6941;SDS011;3510;43.200;27.920;2022-10-16T16:05:07;3.10;;;2.90;;
6941;SDS011;3510;43.200;27.920;2022-10-16T16:07:35;7.53;;;3.20;;
6941;SDS011;3510;43.200;27.920;2022-10-16T16:10:04;3.50;;;3.30;;
6941;SDS011;3510;43.200;27.920;2022-10-16T16:12:33;3.47;;;3.20;;
6941;SDS011;3510;43.200;27.920;2022-10-16T16:15:00;6.20;;;3.47;;
6941;SDS011;3510;43.200;27.920;2022-10-16T16:17:28;3.97;;;3.60;;
6941;SDS011;3510;43.200;27.920;2022-10-16T16:19:56;5.13;;;3.73;;
6941;SDS011;3510;43.200;27.920;2022-10-16T16:22:23;5.70;;;3.87;;
6941;SDS011;3510;43.200;27.920;2022-10-16T16:24:50;8.60;;;3.93;;
6941;SDS011;3510;43.200;27.920;2022-10-16T16:27:17;9.63;;;3.87;;
6941;SDS011;3510;43.200;27.920;2022-10-16T16:29:45;5.70;;;3.93;;
6941;SDS011;3510;43.200;27.920;2022-10-16T16:32:12;6.90;;;4.50;;
6941;SDS011;3510;43.200;27.920;2022-10-16T16:34:40;4.27;;;3.97;;
6941;SDS011;3510;43.200;27.920;2022-10-16T16:37:07;6.23;;;4.33;;
6941;SDS011;3510;43.200;27.920;2022-10-16T16:39:34;3.70;;;3.30;;
6941;SDS011;3510;43.200;27.920;2022-10-16T16:42:01;7.37;;;4.27;;
6941;SDS011;3510;43.200;27.920;2022-10-16T16:44:29;4.63;;;3.60;;
6941;SDS011;3510;43.200;27.920;2022-10-16T16:46:56;6.00;;;3.37;;
6941;SDS011;3510;43.200;27.920;2022-10-16T16:49:23;4.90;;;3.67;;
6941;SDS011;3510;43.200;27.920;2022-10-16T16:51:51;6.93;;;4.07;;
6941;SDS011;3510;43.200;27.920;2022-10-16T16:54:19;5.93;;;4.00;;
6941;SDS011;3510;43.200;27.920;2022-10-16T16:56:46;7.33;;;3.70;;
6941;SDS011;3510;43.200;27.920;2022-10-16T16:59:14;3.63;;;3.27;;
6941;SDS011;3510;43.200;27.920;2022-10-16T17:01:43;6.63;;;3.80;;
6941;SDS011;3510;43.200;27.920;2022-10-16T17:04:10;5.17;;;3.00;;
6941;SDS011;3510;43.200;27.920;2022-10-16T17:06:37;5.03;;;3.37;;
6941;SDS011;3510;43.200;27.920;2022-10-16T17:09:06;4.17;;;3.03;;
6941;SDS011;3510;43.200;27.920;2022-10-16T17:11:34;6.50;;;3.30;;
6941;SDS011;3510;43.200;27.920;2022-10-16T17:14:02;4.90;;;3.40;;
6941;SDS011;3510;43.200;27.920;2022-10-16T17:16:30;3.70;;;2.60;;
6941;SDS011;3510;43.200;27.920;2022-10-16T17:19:01;3.50;;;2.50;;
6941;SDS011;3510;43.200;27.920;2022-10-16T17:21:29;7.70;;;2.87;;
6941;SDS011;3510;43.200;27.920;2022-10-16T17:23:57;3.00;;;2.70;;
6941;SDS011;3510;43.200;27.920;2022-10-16T17:26:25;2.50;;;2.40;;
6941;SDS011;3510;43.200;27.920;2022-10-16T17:28:53;2.80;;;2.60;;
6941;SDS011;3510;43.200;27.920;2022-10-16T17:31:21;3.10;;;2.90;;
6941;SDS011;3510;43.200;27.920;2022-10-16T17:33:50;4.73;;;3.70;;
6941;SDS011;3510;43.200;27.920;2022-10-16T17:36:18;3.03;;;2.73;;
6941;SDS011;3510;43.200;27.920;2022-10-16T17:38:46;3.10;;;2.80;;
6941;SDS011;3510;43.200;27.920;2022-10-16T17:41:13;5.07;;;2.23;;
6941;SDS011;3510;43.200;27.920;2022-10-16T17:47:04;6.23;;;2.87;;
6941;SDS011;3510;43.200;27.920;2022-10-16T17:49:31;5.03;;;2.87;;
6941;SDS011;3510;43.200;27.920;2022-10-16T17:51:58;6.70;;;2.70;;
6941;SDS011;3510;43.200;27.920;2022-10-16T17:54:27;2.50;;;2.37;;
6941;SDS011;3510;43.200;27.920;2022-10-16T17:56:54;3.13;;;2.93;;
6941;SDS011;3510;43.200;27.920;2022-10-16T17:59:21;3.10;;;2.90;;
6941;SDS011;3510;43.200;27.920;2022-10-16T18:01:48;3.57;;;2.90;;
6941;SDS011;3510;43.200;27.920;2022-10-16T18:04:16;3.67;;;2.77;;
6941;SDS011;3510;43.200;27.920;2022-10-16T18:06:44;3.33;;;2.60;;
6941;SDS011;3510;43.200;27.920;2022-10-16T18:09:13;4.43;;;3.83;;
6941;SDS011;3510;43.200;27.920;2022-10-16T18:11:42;3.80;;;2.83;;
6941;SDS011;3510;43.200;27.920;2022-10-16T18:14:10;4.33;;;3.27;;
6941;SDS011;3510;43.200;27.920;2022-10-16T18:16:38;6.77;;;3.47;;
6941;SDS011;3510;43.200;27.920;2022-10-16T18:19:05;5.13;;;2.70;;
6941;SDS011;3510;43.200;27.920;2022-10-16T18:21:34;4.50;;;3.33;;
6941;SDS011;3510;43.200;27.920;2022-10-16T18:24:01;4.00;;;2.87;;
6941;SDS011;3510;43.200;27.920;2022-10-16T18:26:28;4.57;;;3.20;;
6941;SDS011;3510;43.200;27.920;2022-10-16T18:28:55;5.47;;;3.90;;